Latest Weather Observations for Sydney Airport

IDN60901

Issued at 7:45 pm EST Friday 22 August 2014 (issued every 10 minutes, with the page automatically refreshed every 10 minutes)

About weather observations | Map of Sydney area stations | Latest observations for Sydney area | Other Formats
Station Details ID: 066037 Name: SYDNEY AIRPORT AMO Lat: -33.95 Lon: 151.17 Height: 6.0 m
Data from the previous 72 hours. | See also: Recent months at Sydney Airport
Date/Time
EST
Tmp

°C
App
Tmp
°C
Dew
Point
°C
Rel
Hum
%
Delta-T

°C
Wind Press
QNH
hPa
Press
MSL
hPa
Rain
since
9 am
mm
Dir
 
Spd
km/h
Gust
km/h
Spd
kts
Gust
kts
22/07:30pm 14.7 13.5 12.7 88 1.1 S 11 13 6 7 1030.3 - 0.0
22/07:00pm 14.7 13.5 12.7 88 1.1 SSW 11 13 6 7 1030.0 1030.0 0.0
22/06:30pm 15.0 13.2 12.0 82 1.6 S 13 13 7 7 1029.7 - 0.0
22/06:00pm 14.9 13.5 12.3 84 1.4 S 11 15 6 8 1029.6 1029.6 0.0
22/05:30pm 15.1 12.6 12.3 83 1.5 S 17 22 9 12 1029.4 - 0.0
22/05:00pm 15.3 12.3 12.5 83 1.5 S 20 24 11 13 1029.3 1029.3 0.0
22/04:30pm 15.5 12.5 12.4 82 1.7 S 20 28 11 15 1028.9 - 0.0
22/04:00pm 15.7 12.1 12.0 78 2.0 S 22 28 12 15 1029.0 1029.0 0.0
22/03:30pm 15.8 11.8 11.7 76 2.2 S 24 33 13 18 1028.9 - 0.0
22/03:00pm 15.9 11.2 12.0 77 2.1 S 28 33 15 18 1029.1 1029.1 0.0
22/02:30pm 16.1 11.8 12.0 76 2.2 S 26 32 14 17 1029.1 - 0.0
22/02:00pm 16.1 11.3 11.6 74 2.4 S 28 35 15 19 1029.2 1029.2 0.0
22/01:30pm 16.1 11.3 11.6 74 2.4 S 28 33 15 18 1029.5 - 0.0
22/01:00pm 16.2 11.7 11.5 73 2.5 S 26 32 14 17 1029.8 1029.8 0.0
22/12:30pm 16.5 12.4 11.3 71 2.8 S 24 30 13 16 1030.1 - 0.0
22/12:00pm 16.2 12.4 11.3 73 2.6 S 22 28 12 15 1030.6 1030.6 0.0
22/11:30am 16.1 12.3 11.2 72 2.6 S 22 30 12 16 1031.0 - 0.0
22/11:00am 16.6 13.4 11.8 73 2.6 S 20 28 11 15 1031.6 1031.6 0.0
22/10:30am 16.0 11.6 11.7 75 2.3 S 26 35 14 19 1031.6 - 0.0
22/10:00am 16.1 12.9 11.2 72 2.6 S 19 22 10 12 1031.9 1031.9 0.0
22/09:30am 15.5 12.7 11.2 75 2.3 S 17 20 9 11 1031.8 - 0.0
22/09:00am 16.2 15.0 10.3 68 3.1 NNE 7 13 4 7 1031.7 1031.7 3.0
22/08:30am 16.2 14.7 10.5 69 3.0 WNW 9 15 5 8 1031.5 - -
22/08:00am 15.0 13.4 10.2 73 2.5 W 9 13 5 7 1031.3 1031.3 -
22/07:30am 13.7 12.4 10.0 78 1.9 NW 7 9 4 5 1030.9 - -
22/07:00am 12.6 11.2 9.6 82 1.5 N 7 9 4 5 1030.7 1030.7 -
22/06:30am 12.4 10.6 9.6 83 1.4 NW 9 11 5 6 1030.3 - -
22/06:00am 11.9 9.8 9.7 86 1.1 NW 11 13 6 7 1030.0 1030.0 -
22/05:30am 11.5 9.4 9.9 90 0.8 WNW 11 15 6 8 1029.8 - -
22/05:00am 11.8 9.4 10.2 90 0.8 NNW 13 13 7 7 1029.5 1029.5 -
22/04:30am 11.9 10.3 10.3 90 0.8 NW 9 13 5 7 1029.5 - -
22/04:00am 12.1 9.8 10.5 90 0.8 NW 13 15 7 8 1029.4 1029.4 -
22/03:30am 12.2 9.9 10.6 90 0.8 N 13 22 7 12 1029.3 - -
22/03:00am 12.3 10.8 10.7 90 0.8 N 9 15 5 8 1029.4 1029.4 0.0
22/02:30am 12.6 9.2 10.5 87 1.1 SSE 19 26 10 14 1029.4 - -
22/02:00am 13.4 9.9 10.3 81 1.6 SE 19 24 10 13 1029.7 1029.7 -
22/01:30am 12.8 11.7 10.5 86 1.2 WNW 7 11 4 6 1029.8 - -
22/01:00am 12.7 11.3 10.8 88 1.0 WNW 9 13 5 7 1029.9 1029.9 -
22/12:30am 12.8 11.0 10.9 88 1.0 W 11 15 6 8 1030.2 - -
22/12:00am 13.5 11.0 11.0 85 1.3 SE 15 19 8 10 1030.1 1030.1 -
 
Date/Time
EST
Tmp

°C
App
Tmp
°C
Dew
Point
°C
Rel
Hum
%
Delta-T

°C
Wind Press
QNH
hPa
Press
MSL
hPa
Rain
since
9 am
mm
Dir
 
Spd
km/h
Gust
km/h
Spd
kts
Gust
kts
21/11:30pm 14.5 11.3 9.8 73 2.4 SE 17 20 9 11 1030.2 - -
21/11:00pm 13.6 12.0 11.5 87 1.1 SSW 11 15 6 8 1030.1 1030.1 -
21/10:30pm 13.4 10.6 11.5 88 1.0 SSW 17 20 9 11 1030.1 - -
21/10:00pm 13.7 9.5 11.2 85 1.3 SSW 24 28 13 15 1030.0 1030.0 -
21/09:30pm 13.9 10.2 11.4 85 1.3 SSW 22 33 12 18 1030.1 - -
21/09:00pm 14.6 10.3 10.8 78 2.0 S 24 30 13 16 1029.8 1029.8 3.0
21/08:30pm 14.4 9.8 11.0 80 1.8 S 26 32 14 17 1029.6 - -
21/08:00pm 14.5 9.7 10.3 76 2.2 SE 26 32 14 17 1029.6 1029.6 -
21/07:30pm 15.3 10.7 9.7 69 2.9 SSE 24 28 13 15 1029.5 - -
21/07:00pm 15.0 11.0 10.6 75 2.3 SSE 22 33 12 18 1029.2 1029.2 -
21/06:30pm 14.3 10.0 10.9 80 1.8 SSE 24 30 13 16 1028.9 - -
21/06:00pm 14.3 10.9 11.1 81 1.7 SE 20 33 11 18 1028.6 1028.6 -
21/05:30pm 14.5 11.9 11.9 84 1.4 SSE 17 19 9 10 1028.3 - -
21/05:00pm 14.4 9.4 12.2 87 1.2 SSW 30 37 16 20 1027.9 1027.9 -
21/04:49pm 14.9 9.9 12.1 83 1.5 SSW 30 37 16 20 1027.7 - 0.2
21/04:30pm 15.1 9.8 11.3 78 2.0 S 30 37 16 20 1027.6 - -
21/04:12pm 15.1 9.8 11.3 78 2.0 S 30 48 16 26 1027.5 - -
21/04:00pm 15.0 9.1 11.2 78 2.0 S 33 39 18 21 1027.4 1027.4 -
21/03:30pm 15.2 9.3 11.2 77 2.1 S 33 41 18 22 1027.3 - 0.2
21/03:00pm 15.2 9.3 11.0 76 2.2 S 33 39 18 21 1027.1 1027.1 0.2
21/02:30pm 15.3 10.0 11.2 76 2.2 S 30 39 16 21 1027.3 - 0.2
21/02:00pm 15.2 9.4 10.8 75 2.3 S 32 39 17 21 1027.4 1027.4 0.2
21/01:30pm 15.2 9.3 11.0 76 2.2 S 33 48 18 26 1027.5 - 0.0
21/01:00pm 15.1 10.1 11.1 77 2.1 S 28 35 15 19 1027.9 1027.9 0.0
21/12:30pm 15.3 10.0 11.2 76 2.2 S 30 35 16 19 1028.3 - 0.0
21/12:00pm 14.7 9.4 11.1 79 1.9 S 30 35 16 19 1028.6 1028.6 0.0
21/11:30am 14.8 9.8 10.8 77 2.1 S 28 32 15 17 1028.8 - 0.0
21/11:00am 14.4 9.6 11.6 83 1.5 SSW 28 32 15 17 1029.2 1029.2 0.0
21/10:30am 13.8 8.6 11.5 86 1.2 S 30 37 16 20 1029.2 - 0.0
21/10:00am 13.3 9.5 11.2 87 1.1 SSW 22 30 12 16 1029.4 1029.4 0.0
21/09:30am 12.0 10.2 10.8 92 0.6 WSW 11 15 6 8 1029.4 - 0.0
21/09:00am 11.9 8.9 10.5 91 0.7 NW 17 19 9 10 1029.3 1029.3 12.8
21/08:43am 12.5 11.5 11.0 90 0.8 W 7 11 4 6 1029.2 - 12.8
21/08:30am 11.8 10.7 10.8 94 0.5 SW 7 9 4 5 1029.1 - 12.4
21/08:00am 11.2 8.8 10.0 92 0.6 W 13 19 7 10 1028.8 1028.8 10.4
21/07:30am 10.9 8.3 9.5 91 0.7 N 13 17 7 9 1028.8 - 10.4
21/07:21am 10.4 6.7 9.4 93 0.5 N 19 26 10 14 1028.5 - 10.4
21/07:00am 10.4 7.7 9.0 91 0.7 NW 13 17 7 9 1028.4 1028.4 9.0
21/06:55am 10.9 8.3 9.5 91 0.7 NW 13 20 7 11 1028.2 - 8.6
21/06:30am 10.2 7.2 9.2 93 0.5 NNW 15 19 8 10 1028.1 - 8.6
21/06:10am 10.4 6.6 9.0 91 0.7 SW 19 26 10 14 1027.8 - 8.0
21/06:00am 10.7 6.8 9.5 92 0.6 SW 20 26 11 14 1027.7 1027.7 8.0
21/05:30am 10.6 6.6 9.2 91 0.7 W 20 22 11 12 1027.2 - 7.8
21/05:00am 10.2 7.6 9.2 93 0.5 W 13 17 7 9 1027.1 1027.1 7.8
21/04:30am 10.4 7.8 9.4 93 0.5 W 13 17 7 9 1027.1 - 7.8
21/04:00am 11.7 7.0 10.5 92 0.6 S 26 33 14 18 1027.1 1027.1 7.8
21/03:30am 10.8 8.3 9.6 92 0.6 WSW 13 22 7 12 1027.1 - 7.8
21/03:00am 10.8 9.0 9.6 92 0.6 NNW 9 11 5 6 1027.0 1027.0 5.6
21/02:30am 10.9 9.0 9.1 89 0.9 WNW 9 9 5 5 1027.0 - 3.4
21/02:00am 11.2 9.6 8.8 85 1.2 W 7 9 4 5 1027.0 1027.0 2.4
21/01:51am 11.1 9.8 9.1 87 1.0 W 6 7 3 4 1027.0 - 2.2
21/01:30am 11.1 9.0 8.4 83 1.3 WSW 9 13 5 7 1027.1 - 1.6
21/01:00am 12.0 8.8 8.5 79 1.7 WSW 15 20 8 11 1027.1 1027.1 1.6
21/12:30am 11.8 7.8 8.1 78 1.8 SW 19 22 10 12 1026.9 - 1.6
21/12:00am 11.7 9.7 8.7 82 1.5 WSW 9 15 5 8 1027.0 1027.0 1.6
 
Date/Time
EST
Tmp

°C
App
Tmp
°C
Dew
Point
°C
Rel
Hum
%
Delta-T

°C
Wind Press
QNH
hPa
Press
MSL
hPa
Rain
since
9 am
mm
Dir
 
Spd
km/h
Gust
km/h
Spd
kts
Gust
kts
20/11:30pm 11.8 10.2 8.8 82 1.5 SSW 7 11 4 6 1027.0 - 1.6
20/11:14pm 11.8 9.9 9.0 83 1.4 S 9 11 5 6 1027.2 - 1.2
20/11:00pm 12.3 9.6 8.9 80 1.7 SSE 13 19 7 10 1027.1 1027.1 0.4
20/10:30pm 12.8 8.1 7.7 71 2.5 SW 22 26 12 14 1026.8 - 0.0
20/10:00pm 13.1 8.6 8.5 73 2.3 SSW 22 30 12 16 1026.9 1026.9 0.0
20/09:30pm 13.6 9.1 8.4 71 2.6 SSW 22 28 12 15 1026.9 - 0.0
20/09:00pm 13.8 8.8 8.1 68 2.8 SSW 24 32 13 17 1026.9 1026.9 0.0
20/08:30pm 14.1 9.2 8.3 68 2.9 SSW 24 30 13 16 1026.7 - 0.0
20/08:00pm 13.9 8.3 8.9 72 2.5 S 28 33 15 18 1026.5 1026.5 0.0
20/07:30pm 13.8 9.3 8.4 70 2.7 SSW 22 30 12 16 1026.4 - 0.0
20/07:00pm 14.0 9.4 8.1 67 2.9 S 22 30 12 16 1026.1 1026.1 0.0
20/06:30pm 14.0 9.1 8.6 70 2.7 S 24 32 13 17 1025.9 - 0.0
20/06:00pm 14.3 8.5 7.8 65 3.2 S 28 33 15 18 1025.6 1025.6 0.0
20/05:30pm 14.4 8.7 8.2 66 3.1 S 28 35 15 19 1025.3 - 0.0
20/05:00pm 14.5 8.7 8.1 65 3.2 S 28 35 15 19 1025.1 1025.1 0.0
20/04:30pm 14.5 8.7 7.8 64 3.3 S 28 35 15 19 1024.8 - 0.0
20/04:00pm 14.7 7.9 7.6 62 3.5 S 33 41 18 22 1024.7 1024.7 0.0
20/03:30pm 14.9 8.3 7.6 61 3.6 S 32 39 17 21 1024.5 - 0.0
20/03:00pm 14.9 7.9 6.9 58 3.9 S 33 41 18 22 1024.3 1024.3 0.0
20/02:30pm 14.7 7.9 6.9 59 3.8 S 32 43 17 23 1024.2 - 0.0
20/02:00pm 14.8 8.2 6.0 55 4.2 S 30 37 16 20 1024.2 1024.2 0.0
20/01:30pm 14.7 7.3 6.9 59 3.8 S 35 50 19 27 1024.2 - 0.0
20/01:00pm 14.3 7.3 6.9 61 3.6 S 33 41 18 22 1024.4 1024.4 0.0
20/12:30pm 13.9 6.8 6.3 60 3.6 SSW 33 39 18 21 1024.7 - 0.0
20/12:00pm 13.7 6.9 6.8 63 3.3 S 32 39 17 21 1025.0 1025.0 0.0
20/11:30am 14.1 8.1 7.1 62 3.4 SSW 28 35 15 19 1025.2 - 0.0
20/11:00am 13.1 4.6 6.8 65 3.0 S 41 52 22 28 1025.2 1025.2 0.0
20/10:52am 13.5 6.3 6.1 61 3.5 S 33 52 18 28 1025.2 - 0.0
20/10:30am 13.4 6.5 6.5 63 3.3 SSW 32 41 17 22 1025.1 - 0.0
20/10:00am 13.7 6.6 6.6 62 3.4 SSW 33 39 18 21 1025.0 1025.0 0.0
20/09:30am 13.3 6.6 7.3 67 2.9 SSW 32 41 17 22 1024.9 - 0.0
20/09:14am 13.2 6.4 7.0 66 3.0 SW 32 46 17 25 1024.8 - 0.0
20/09:00am 12.9 8.4 6.8 66 2.9 WSW 20 28 11 15 1024.7 1024.7 9.6
20/08:30am 12.5 7.1 6.4 66 2.9 WSW 24 32 13 17 1024.6 - 9.6
20/08:00am 12.0 7.6 6.5 69 2.6 W 19 24 10 13 1024.4 1024.4 9.6
20/07:30am 10.4 6.1 6.8 78 1.7 W 19 24 10 13 1024.1 - 9.6
20/07:00am 10.3 5.6 6.2 76 1.9 W 20 35 11 19 1023.8 1023.8 9.6
20/06:30am 10.7 5.5 5.4 70 2.4 W 22 28 12 15 1023.4 - 9.6
20/06:00am 10.7 5.1 5.4 70 2.4 W 24 30 13 16 1023.0 1023.0 9.6
20/05:30am 10.5 4.9 5.4 70 2.3 WSW 24 28 13 15 1022.6 - 9.6
20/05:00am 10.4 4.5 5.6 72 2.2 W 26 30 14 16 1022.4 1022.4 9.6
20/04:30am 10.1 4.1 5.2 71 2.2 W 26 30 14 16 1022.2 - 9.6
20/04:00am 10.4 4.4 5.1 69 2.4 WSW 26 30 14 16 1021.9 1021.9 9.6
20/03:30am 11.3 5.7 5.2 66 2.8 W 24 30 13 16 1021.6 - 9.6
20/03:00am 11.3 6.5 5.7 68 2.6 WSW 20 26 11 14 1021.5 1021.5 9.6
20/02:30am 10.0 4.4 5.4 73 2.1 WSW 24 32 13 17 1021.4 - 9.6
20/02:00am 11.9 6.3 5.4 64 3.0 WSW 24 30 13 16 1021.6 1021.6 9.6
20/01:30am 12.2 5.2 5.8 65 3.0 SW 32 37 17 20 1021.5 - 9.6
20/01:00am 12.6 5.6 6.0 64 3.1 SW 32 41 17 22 1021.5 1021.5 9.6
20/12:30am 12.7 4.5 6.4 65 3.0 SSW 39 50 21 27 1021.2 - 9.6
20/12:00am 13.0 5.8 5.7 61 3.4 SW 33 41 18 22 1021.3 1021.3 9.6
 
Date/Time
EST
Tmp

°C
App
Tmp
°C
Dew
Point
°C
Rel
Hum
%
Delta-T

°C
Wind Press
QNH
hPa
Press
MSL
hPa
Rain
since
9 am
mm
Dir
 
Spd
km/h
Gust
km/h
Spd
kts
Gust
kts
19/11:30pm 13.3 5.7 5.9 61 3.5 SW 35 41 19 22 1021.2 - 9.6
19/11:00pm 13.6 5.1 7.0 64 3.2 SSW 41 56 22 30 1021.1 1021.1 9.6
19/10:30pm 13.7 5.6 6.9 63 3.3 SSW 39 50 21 27 1020.7 - 9.6
19/10:00pm 13.7 5.3 7.3 65 3.1 SSW 41 57 22 31 1020.9 1020.9 9.6
19/09:30pm 13.8 5.8 7.5 66 3.1 SSW 39 50 21 27 1020.7 - 9.6
19/09:10pm 13.9 6.3 7.6 66 3.1 SSW 37 56 20 30 1020.7 - 9.6
19/09:00pm 14.0 6.7 7.2 63 3.3 SSW 35 48 19 26 1020.7 1020.7 9.6
19/08:37pm 14.0 6.9 7.9 66 3.0 SSW 35 54 19 29 1020.7 - 9.6
19/08:30pm 14.0 6.9 8.2 68 2.9 SSW 35 48 19 26 1020.6 - 9.6
19/08:00pm 14.3 4.9 7.1 62 3.5 SSW 46 61 25 33 1020.3 1020.3 9.6

Latest Capital City Observations: Canberra | Sydney | Melbourne | Brisbane | Adelaide | Perth | Hobart | Darwin

Other Formats:

Comma delimited format used in spreadsheet applications
http://www.bom.gov.au/fwo/IDN60901/IDN60901.94767.axf

JavaScript Object Notation format (JSON) in row-major order
http://www.bom.gov.au/fwo/IDN60901/IDN60901.94767.json